sensor_id;sensor_type;location;lat;lon;timestamp;P1;durP1;ratioP1;P2;durP2;ratioP2
1785;SDS011;890;48.158;11.540;2024-03-06T00:01:52;23.30;;;18.87;;
1785;SDS011;890;48.158;11.540;2024-03-06T00:04:18;24.00;;;18.50;;
1785;SDS011;890;48.158;11.540;2024-03-06T00:06:43;24.67;;;20.23;;
1785;SDS011;890;48.158;11.540;2024-03-06T00:09:09;25.77;;;18.83;;
1785;SDS011;890;48.158;11.540;2024-03-06T00:11:34;30.03;;;21.10;;
1785;SDS011;890;48.158;11.540;2024-03-06T00:14:03;23.43;;;18.67;;
1785;SDS011;890;48.158;11.540;2024-03-06T00:16:30;24.57;;;19.97;;
1785;SDS011;890;48.158;11.540;2024-03-06T00:18:56;26.70;;;19.30;;
1785;SDS011;890;48.158;11.540;2024-03-06T00:21:22;22.13;;;18.83;;
1785;SDS011;890;48.158;11.540;2024-03-06T00:23:47;23.60;;;18.30;;
1785;SDS011;890;48.158;11.540;2024-03-06T00:26:13;26.17;;;20.30;;
1785;SDS011;890;48.158;11.540;2024-03-06T00:28:39;23.20;;;19.10;;
1785;SDS011;890;48.158;11.540;2024-03-06T00:31:05;21.70;;;17.30;;
1785;SDS011;890;48.158;11.540;2024-03-06T00:33:30;22.80;;;18.83;;
1785;SDS011;890;48.158;11.540;2024-03-06T00:35:56;26.30;;;19.77;;
1785;SDS011;890;48.158;11.540;2024-03-06T00:38:22;23.77;;;18.40;;
1785;SDS011;890;48.158;11.540;2024-03-06T00:40:48;23.77;;;19.10;;
1785;SDS011;890;48.158;11.540;2024-03-06T00:43:13;22.47;;;19.57;;
1785;SDS011;890;48.158;11.540;2024-03-06T00:45:39;23.97;;;19.43;;
1785;SDS011;890;48.158;11.540;2024-03-06T00:48:05;24.07;;;19.50;;
1785;SDS011;890;48.158;11.540;2024-03-06T00:50:31;25.57;;;20.40;;
1785;SDS011;890;48.158;11.540;2024-03-06T00:52:57;28.90;;;21.77;;
1785;SDS011;890;48.158;11.540;2024-03-06T00:55:23;24.10;;;20.20;;
1785;SDS011;890;48.158;11.540;2024-03-06T00:57:49;28.50;;;20.80;;
1785;SDS011;890;48.158;11.540;2024-03-06T01:00:14;26.23;;;20.90;;
1785;SDS011;890;48.158;11.540;2024-03-06T01:02:41;28.90;;;22.13;;
1785;SDS011;890;48.158;11.540;2024-03-06T01:05:06;23.87;;;19.80;;
1785;SDS011;890;48.158;11.540;2024-03-06T01:07:34;24.87;;;20.57;;
1785;SDS011;890;48.158;11.540;2024-03-06T01:10:02;25.83;;;21.40;;
1785;SDS011;890;48.158;11.540;2024-03-06T01:12:28;26.57;;;21.10;;
1785;SDS011;890;48.158;11.540;2024-03-06T01:14:54;26.53;;;20.53;;
1785;SDS011;890;48.158;11.540;2024-03-06T01:17:20;27.73;;;20.50;;
1785;SDS011;890;48.158;11.540;2024-03-06T01:19:45;27.70;;;21.10;;
1785;SDS011;890;48.158;11.540;2024-03-06T01:22:11;27.40;;;20.40;;
1785;SDS011;890;48.158;11.540;2024-03-06T01:24:40;24.40;;;20.50;;
1785;SDS011;890;48.158;11.540;2024-03-06T01:27:06;29.10;;;20.80;;
1785;SDS011;890;48.158;11.540;2024-03-06T01:29:31;25.90;;;19.80;;
1785;SDS011;890;48.158;11.540;2024-03-06T01:31:58;26.57;;;21.13;;
1785;SDS011;890;48.158;11.540;2024-03-06T01:34:24;22.40;;;19.40;;
1785;SDS011;890;48.158;11.540;2024-03-06T01:36:51;23.83;;;19.47;;
1785;SDS011;890;48.158;11.540;2024-03-06T01:39:17;22.90;;;18.80;;
1785;SDS011;890;48.158;11.540;2024-03-06T01:41:50;23.10;;;19.67;;
1785;SDS011;890;48.158;11.540;2024-03-06T01:44:16;26.00;;;20.47;;
1785;SDS011;890;48.158;11.540;2024-03-06T01:46:46;30.17;;;20.73;;
1785;SDS011;890;48.158;11.540;2024-03-06T01:49:12;26.10;;;20.67;;
1785;SDS011;890;48.158;11.540;2024-03-06T01:51:40;26.40;;;20.53;;
1785;SDS011;890;48.158;11.540;2024-03-06T01:54:07;26.07;;;21.30;;
1785;SDS011;890;48.158;11.540;2024-03-06T01:56:34;27.13;;;21.07;;
1785;SDS011;890;48.158;11.540;2024-03-06T01:59:02;28.60;;;23.13;;
1785;SDS011;890;48.158;11.540;2024-03-06T02:01:28;30.60;;;22.20;;
1785;SDS011;890;48.158;11.540;2024-03-06T02:03:56;31.70;;;21.27;;
1785;SDS011;890;48.158;11.540;2024-03-06T02:06:21;26.53;;;20.87;;
1785;SDS011;890;48.158;11.540;2024-03-06T02:08:47;28.17;;;21.40;;
1785;SDS011;890;48.158;11.540;2024-03-06T02:11:14;29.83;;;22.80;;
1785;SDS011;890;48.158;11.540;2024-03-06T02:13:40;29.60;;;22.70;;
1785;SDS011;890;48.158;11.540;2024-03-06T02:16:06;32.90;;;23.47;;
1785;SDS011;890;48.158;11.540;2024-03-06T02:18:32;29.40;;;22.47;;
1785;SDS011;890;48.158;11.540;2024-03-06T02:20:58;33.10;;;22.07;;
1785;SDS011;890;48.158;11.540;2024-03-06T02:23:24;31.27;;;23.70;;
1785;SDS011;890;48.158;11.540;2024-03-06T02:25:50;32.30;;;22.93;;
1785;SDS011;890;48.158;11.540;2024-03-06T02:28:16;35.80;;;24.37;;
1785;SDS011;890;48.158;11.540;2024-03-06T02:30:44;34.50;;;23.87;;
1785;SDS011;890;48.158;11.540;2024-03-06T02:33:09;31.53;;;24.30;;
1785;SDS011;890;48.158;11.540;2024-03-06T02:35:35;35.33;;;23.37;;
1785;SDS011;890;48.158;11.540;2024-03-06T02:38:01;33.50;;;23.67;;
1785;SDS011;890;48.158;11.540;2024-03-06T02:40:30;32.80;;;23.23;;
1785;SDS011;890;48.158;11.540;2024-03-06T02:42:55;31.90;;;23.97;;
1785;SDS011;890;48.158;11.540;2024-03-06T02:45:21;33.13;;;24.00;;
1785;SDS011;890;48.158;11.540;2024-03-06T02:47:47;37.27;;;24.60;;
1785;SDS011;890;48.158;11.540;2024-03-06T02:50:13;35.20;;;24.80;;
1785;SDS011;890;48.158;11.540;2024-03-06T02:52:39;33.00;;;23.47;;
1785;SDS011;890;48.158;11.540;2024-03-06T02:55:05;36.40;;;23.63;;
1785;SDS011;890;48.158;11.540;2024-03-06T02:57:31;34.87;;;23.30;;
1785;SDS011;890;48.158;11.540;2024-03-06T02:59:57;37.83;;;25.27;;
1785;SDS011;890;48.158;11.540;2024-03-06T03:02:23;31.90;;;23.27;;
1785;SDS011;890;48.158;11.540;2024-03-06T03:04:49;29.93;;;21.90;;
1785;SDS011;890;48.158;11.540;2024-03-06T03:07:17;32.80;;;23.17;;
1785;SDS011;890;48.158;11.540;2024-03-06T03:09:44;34.13;;;22.27;;
1785;SDS011;890;48.158;11.540;2024-03-06T03:12:10;31.50;;;22.30;;
1785;SDS011;890;48.158;11.540;2024-03-06T03:14:36;32.13;;;23.50;;
1785;SDS011;890;48.158;11.540;2024-03-06T03:17:02;34.17;;;22.80;;
1785;SDS011;890;48.158;11.540;2024-03-06T03:19:30;32.53;;;22.90;;
1785;SDS011;890;48.158;11.540;2024-03-06T03:21:56;32.53;;;21.17;;
1785;SDS011;890;48.158;11.540;2024-03-06T03:24:23;31.10;;;21.80;;
1785;SDS011;890;48.158;11.540;2024-03-06T03:26:51;31.43;;;20.23;;
1785;SDS011;890;48.158;11.540;2024-03-06T03:29:17;30.20;;;21.83;;
1785;SDS011;890;48.158;11.540;2024-03-06T03:31:42;29.50;;;21.10;;
1785;SDS011;890;48.158;11.540;2024-03-06T03:34:08;33.97;;;21.27;;
1785;SDS011;890;48.158;11.540;2024-03-06T03:36:39;27.50;;;18.57;;
1785;SDS011;890;48.158;11.540;2024-03-06T03:39:09;21.67;;;14.67;;
1785;SDS011;890;48.158;11.540;2024-03-06T03:41:47;10.83;;;9.40;;
1785;SDS011;890;48.158;11.540;2024-03-06T03:44:16;9.10;;;7.60;;
1785;SDS011;890;48.158;11.540;2024-03-06T03:46:44;9.93;;;7.53;;
1785;SDS011;890;48.158;11.540;2024-03-06T03:49:10;10.20;;;7.87;;
1785;SDS011;890;48.158;11.540;2024-03-06T03:51:40;8.30;;;7.00;;
1785;SDS011;890;48.158;11.540;2024-03-06T03:54:06;7.63;;;6.53;;
1785;SDS011;890;48.158;11.540;2024-03-06T03:56:31;13.00;;;10.60;;
1785;SDS011;890;48.158;11.540;2024-03-06T03:58:58;8.30;;;7.27;;
1785;SDS011;890;48.158;11.540;2024-03-06T04:01:24;9.20;;;7.47;;
1785;SDS011;890;48.158;11.540;2024-03-06T04:03:51;8.17;;;5.93;;
1785;SDS011;890;48.158;11.540;2024-03-06T04:06:17;7.30;;;6.47;;
1785;SDS011;890;48.158;11.540;2024-03-06T04:08:43;7.53;;;6.50;;
1785;SDS011;890;48.158;11.540;2024-03-06T04:11:09;7.07;;;5.90;;
1785;SDS011;890;48.158;11.540;2024-03-06T04:13:38;7.10;;;5.97;;
1785;SDS011;890;48.158;11.540;2024-03-06T04:16:04;7.20;;;5.87;;
1785;SDS011;890;48.158;11.540;2024-03-06T04:18:30;7.77;;;6.10;;
1785;SDS011;890;48.158;11.540;2024-03-06T04:21:05;11.27;;;8.40;;
1785;SDS011;890;48.158;11.540;2024-03-06T04:23:32;11.23;;;8.23;;
1785;SDS011;890;48.158;11.540;2024-03-06T04:26:01;9.70;;;8.27;;
1785;SDS011;890;48.158;11.540;2024-03-06T04:28:28;12.83;;;10.33;;
1785;SDS011;890;48.158;11.540;2024-03-06T04:30:54;18.83;;;13.40;;
1785;SDS011;890;48.158;11.540;2024-03-06T04:33:20;19.90;;;12.63;;
1785;SDS011;890;48.158;11.540;2024-03-06T04:35:46;15.53;;;11.50;;
1785;SDS011;890;48.158;11.540;2024-03-06T04:38:12;13.13;;;8.30;;
1785;SDS011;890;48.158;11.540;2024-03-06T04:40:37;11.70;;;9.40;;
1785;SDS011;890;48.158;11.540;2024-03-06T04:43:04;13.20;;;9.37;;
1785;SDS011;890;48.158;11.540;2024-03-06T04:45:30;13.17;;;7.80;;
1785;SDS011;890;48.158;11.540;2024-03-06T04:47:56;11.03;;;7.50;;
1785;SDS011;890;48.158;11.540;2024-03-06T04:50:21;10.20;;;6.63;;
1785;SDS011;890;48.158;11.540;2024-03-06T04:52:47;8.30;;;7.17;;
1785;SDS011;890;48.158;11.540;2024-03-06T04:55:13;9.00;;;7.17;;
1785;SDS011;890;48.158;11.540;2024-03-06T04:57:42;9.40;;;6.70;;
1785;SDS011;890;48.158;11.540;2024-03-06T05:00:09;8.40;;;7.03;;
1785;SDS011;890;48.158;11.540;2024-03-06T05:02:35;10.27;;;7.47;;
1785;SDS011;890;48.158;11.540;2024-03-06T05:05:02;11.37;;;7.17;;
1785;SDS011;890;48.158;11.540;2024-03-06T05:07:29;10.13;;;8.40;;
1785;SDS011;890;48.158;11.540;2024-03-06T05:09:55;9.30;;;6.70;;
1785;SDS011;890;48.158;11.540;2024-03-06T05:12:22;9.10;;;7.07;;
1785;SDS011;890;48.158;11.540;2024-03-06T05:14:48;8.10;;;6.93;;
1785;SDS011;890;48.158;11.540;2024-03-06T05:17:14;10.57;;;7.00;;
1785;SDS011;890;48.158;11.540;2024-03-06T05:19:40;6.83;;;6.13;;
1785;SDS011;890;48.158;11.540;2024-03-06T05:22:05;7.00;;;5.53;;
1785;SDS011;890;48.158;11.540;2024-03-06T05:24:31;7.40;;;5.60;;
1785;SDS011;890;48.158;11.540;2024-03-06T05:26:56;6.60;;;5.50;;
1785;SDS011;890;48.158;11.540;2024-03-06T05:29:22;6.40;;;5.70;;
1785;SDS011;890;48.158;11.540;2024-03-06T05:31:48;7.50;;;5.97;;
1785;SDS011;890;48.158;11.540;2024-03-06T05:34:13;6.90;;;6.20;;
1785;SDS011;890;48.158;11.540;2024-03-06T05:36:39;8.10;;;7.30;;
1785;SDS011;890;48.158;11.540;2024-03-06T05:39:04;8.07;;;6.50;;
1785;SDS011;890;48.158;11.540;2024-03-06T05:41:32;7.00;;;5.80;;
1785;SDS011;890;48.158;11.540;2024-03-06T05:43:58;7.67;;;6.70;;
1785;SDS011;890;48.158;11.540;2024-03-06T05:46:23;7.90;;;6.80;;
1785;SDS011;890;48.158;11.540;2024-03-06T05:48:49;6.40;;;5.77;;
1785;SDS011;890;48.158;11.540;2024-03-06T05:51:16;8.37;;;7.20;;
1785;SDS011;890;48.158;11.540;2024-03-06T05:53:42;8.33;;;7.30;;
1785;SDS011;890;48.158;11.540;2024-03-06T05:56:08;6.90;;;6.20;;
1785;SDS011;890;48.158;11.540;2024-03-06T05:58:34;7.37;;;6.33;;
1785;SDS011;890;48.158;11.540;2024-03-06T06:01:03;7.80;;;6.40;;
1785;SDS011;890;48.158;11.540;2024-03-06T06:03:29;7.97;;;6.53;;
1785;SDS011;890;48.158;11.540;2024-03-06T06:05:55;10.23;;;6.90;;
1785;SDS011;890;48.158;11.540;2024-03-06T06:08:21;10.73;;;7.30;;
1785;SDS011;890;48.158;11.540;2024-03-06T06:10:47;6.67;;;5.90;;
1785;SDS011;890;48.158;11.540;2024-03-06T06:13:17;7.40;;;6.70;;
1785;SDS011;890;48.158;11.540;2024-03-06T06:15:44;9.07;;;7.30;;
1785;SDS011;890;48.158;11.540;2024-03-06T06:18:10;8.70;;;7.27;;
1785;SDS011;890;48.158;11.540;2024-03-06T06:20:36;8.53;;;6.83;;
1785;SDS011;890;48.158;11.540;2024-03-06T06:23:01;8.07;;;7.07;;
1785;SDS011;890;48.158;11.540;2024-03-06T06:25:27;8.23;;;7.20;;
1785;SDS011;890;48.158;11.540;2024-03-06T06:27:53;12.47;;;7.43;;
1785;SDS011;890;48.158;11.540;2024-03-06T06:30:18;7.43;;;6.63;;
1785;SDS011;890;48.158;11.540;2024-03-06T06:32:44;7.73;;;6.93;;
1785;SDS011;890;48.158;11.540;2024-03-06T06:35:10;8.90;;;7.30;;
1785;SDS011;890;48.158;11.540;2024-03-06T06:37:38;6.83;;;6.23;;
1785;SDS011;890;48.158;11.540;2024-03-06T06:40:04;7.40;;;6.63;;
1785;SDS011;890;48.158;11.540;2024-03-06T06:42:34;8.80;;;7.07;;
1785;SDS011;890;48.158;11.540;2024-03-06T06:45:00;7.87;;;7.13;;
1785;SDS011;890;48.158;11.540;2024-03-06T06:47:27;10.00;;;7.97;;
1785;SDS011;890;48.158;11.540;2024-03-06T06:49:53;8.67;;;6.97;;
1785;SDS011;890;48.158;11.540;2024-03-06T06:52:19;7.97;;;6.83;;
1785;SDS011;890;48.158;11.540;2024-03-06T06:54:45;8.03;;;7.20;;
1785;SDS011;890;48.158;11.540;2024-03-06T06:57:10;7.47;;;6.50;;
1785;SDS011;890;48.158;11.540;2024-03-06T06:59:36;7.73;;;6.90;;
1785;SDS011;890;48.158;11.540;2024-03-06T07:02:02;7.87;;;6.90;;
1785;SDS011;890;48.158;11.540;2024-03-06T07:04:28;10.07;;;7.93;;
1785;SDS011;890;48.158;11.540;2024-03-06T07:06:53;8.33;;;7.43;;
1785;SDS011;890;48.158;11.540;2024-03-06T07:09:19;11.60;;;7.73;;
1785;SDS011;890;48.158;11.540;2024-03-06T07:11:45;9.00;;;7.67;;
1785;SDS011;890;48.158;11.540;2024-03-06T07:14:12;8.43;;;7.53;;
1785;SDS011;890;48.158;11.540;2024-03-06T07:16:42;9.53;;;7.00;;
1785;SDS011;890;48.158;11.540;2024-03-06T07:19:08;7.90;;;6.57;;
1785;SDS011;890;48.158;11.540;2024-03-06T07:21:34;8.87;;;7.93;;
1785;SDS011;890;48.158;11.540;2024-03-06T07:23:59;12.50;;;7.60;;
1785;SDS011;890;48.158;11.540;2024-03-06T07:26:25;10.10;;;7.30;;
1785;SDS011;890;48.158;11.540;2024-03-06T07:28:51;9.03;;;7.00;;
1785;SDS011;890;48.158;11.540;2024-03-06T07:31:17;8.20;;;7.40;;
1785;SDS011;890;48.158;11.540;2024-03-06T07:33:43;7.63;;;6.87;;
1785;SDS011;890;48.158;11.540;2024-03-06T07:36:09;7.97;;;7.03;;
1785;SDS011;890;48.158;11.540;2024-03-06T07:38:35;7.93;;;7.10;;
1785;SDS011;890;48.158;11.540;2024-03-06T07:41:00;6.77;;;6.07;;
1785;SDS011;890;48.158;11.540;2024-03-06T07:43:26;7.67;;;6.90;;
1785;SDS011;890;48.158;11.540;2024-03-06T07:45:52;7.00;;;6.00;;
1785;SDS011;890;48.158;11.540;2024-03-06T07:48:18;6.77;;;6.17;;
1785;SDS011;890;48.158;11.540;2024-03-06T07:50:44;7.60;;;6.43;;
1785;SDS011;890;48.158;11.540;2024-03-06T07:53:10;6.10;;;5.50;;
1785;SDS011;890;48.158;11.540;2024-03-06T07:55:36;6.73;;;6.03;;
1785;SDS011;890;48.158;11.540;2024-03-06T07:58:03;6.60;;;5.93;;
1785;SDS011;890;48.158;11.540;2024-03-06T08:00:29;6.90;;;6.00;;
1785;SDS011;890;48.158;11.540;2024-03-06T08:02:56;5.87;;;5.27;;
1785;SDS011;890;48.158;11.540;2024-03-06T08:05:22;6.70;;;6.10;;
1785;SDS011;890;48.158;11.540;2024-03-06T08:07:48;6.73;;;6.00;;
1785;SDS011;890;48.158;11.540;2024-03-06T08:10:14;6.93;;;6.10;;
1785;SDS011;890;48.158;11.540;2024-03-06T08:12:42;8.37;;;6.50;;
1785;SDS011;890;48.158;11.540;2024-03-06T08:15:12;7.40;;;6.70;;
1785;SDS011;890;48.158;11.540;2024-03-06T08:17:39;6.87;;;6.20;;
1785;SDS011;890;48.158;11.540;2024-03-06T08:20:06;8.20;;;7.37;;
1785;SDS011;890;48.158;11.540;2024-03-06T08:22:37;7.83;;;7.07;;
1785;SDS011;890;48.158;11.540;2024-03-06T08:25:05;8.43;;;7.63;;
1785;SDS011;890;48.158;11.540;2024-03-06T08:27:32;7.57;;;6.53;;
1785;SDS011;890;48.158;11.540;2024-03-06T08:29:57;8.27;;;7.43;;
1785;SDS011;890;48.158;11.540;2024-03-06T08:32:23;7.27;;;6.57;;
1785;SDS011;890;48.158;11.540;2024-03-06T08:34:49;7.53;;;6.83;;
1785;SDS011;890;48.158;11.540;2024-03-06T08:37:14;7.87;;;7.10;;
1785;SDS011;890;48.158;11.540;2024-03-06T08:39:40;7.50;;;6.80;;
1785;SDS011;890;48.158;11.540;2024-03-06T08:42:06;9.30;;;7.30;;
1785;SDS011;890;48.158;11.540;2024-03-06T08:44:31;8.43;;;7.50;;
1785;SDS011;890;48.158;11.540;2024-03-06T08:46:57;8.73;;;6.93;;
1785;SDS011;890;48.158;11.540;2024-03-06T08:49:22;8.90;;;7.30;;
1785;SDS011;890;48.158;11.540;2024-03-06T08:51:48;10.47;;;7.80;;
1785;SDS011;890;48.158;11.540;2024-03-06T08:54:14;7.77;;;6.97;;
1785;SDS011;890;48.158;11.540;2024-03-06T08:56:39;8.37;;;7.27;;
1785;SDS011;890;48.158;11.540;2024-03-06T08:59:07;7.43;;;6.70;;
1785;SDS011;890;48.158;11.540;2024-03-06T09:01:33;7.10;;;5.80;;
1785;SDS011;890;48.158;11.540;2024-03-06T09:03:58;9.03;;;7.77;;
1785;SDS011;890;48.158;11.540;2024-03-06T09:06:24;8.23;;;7.47;;
1785;SDS011;890;48.158;11.540;2024-03-06T09:08:50;7.57;;;6.77;;
1785;SDS011;890;48.158;11.540;2024-03-06T09:11:15;7.50;;;6.67;;
1785;SDS011;890;48.158;11.540;2024-03-06T09:13:41;5.80;;;5.20;;
1785;SDS011;890;48.158;11.540;2024-03-06T09:16:06;7.00;;;6.30;;
1785;SDS011;890;48.158;11.540;2024-03-06T09:18:32;6.20;;;5.60;;
1785;SDS011;890;48.158;11.540;2024-03-06T09:20:58;5.87;;;5.27;;
1785;SDS011;890;48.158;11.540;2024-03-06T09:23:24;6.60;;;5.97;;
1785;SDS011;890;48.158;11.540;2024-03-06T09:25:51;6.40;;;5.73;;
1785;SDS011;890;48.158;11.540;2024-03-06T09:28:17;6.07;;;5.43;;
1785;SDS011;890;48.158;11.540;2024-03-06T09:30:42;6.20;;;5.60;;
1785;SDS011;890;48.158;11.540;2024-03-06T09:33:08;9.70;;;5.80;;
1785;SDS011;890;48.158;11.540;2024-03-06T09:35:33;6.20;;;5.60;;
1785;SDS011;890;48.158;11.540;2024-03-06T09:37:59;6.80;;;6.10;;
1785;SDS011;890;48.158;11.540;2024-03-06T09:40:26;6.50;;;5.90;;
1785;SDS011;890;48.158;11.540;2024-03-06T09:42:53;6.43;;;5.83;;
1785;SDS011;890;48.158;11.540;2024-03-06T09:45:19;6.70;;;6.10;;
1785;SDS011;890;48.158;11.540;2024-03-06T09:47:44;7.13;;;6.50;;
1785;SDS011;890;48.158;11.540;2024-03-06T09:50:12;6.83;;;5.73;;
1785;SDS011;890;48.158;11.540;2024-03-06T09:52:45;6.60;;;6.00;;
1785;SDS011;890;48.158;11.540;2024-03-06T09:55:12;6.90;;;6.30;;
1785;SDS011;890;48.158;11.540;2024-03-06T09:57:40;6.67;;;6.07;;
1785;SDS011;890;48.158;11.540;2024-03-06T10:00:06;7.70;;;6.90;;
1785;SDS011;890;48.158;11.540;2024-03-06T10:02:40;9.87;;;6.20;;
1785;SDS011;890;48.158;11.540;2024-03-06T10:05:20;6.47;;;5.87;;
1785;SDS011;890;48.158;11.540;2024-03-06T10:07:47;6.47;;;5.87;;
1785;SDS011;890;48.158;11.540;2024-03-06T10:10:14;5.97;;;5.37;;
1785;SDS011;890;48.158;11.540;2024-03-06T10:12:40;6.77;;;6.07;;
1785;SDS011;890;48.158;11.540;2024-03-06T10:15:07;6.50;;;5.90;;
1785;SDS011;890;48.158;11.540;2024-03-06T10:17:37;7.93;;;6.10;;
1785;SDS011;890;48.158;11.540;2024-03-06T10:20:24;7.30;;;5.87;;
1785;SDS011;890;48.158;11.540;2024-03-06T10:22:53;7.77;;;6.93;;
1785;SDS011;890;48.158;11.540;2024-03-06T10:25:19;10.00;;;6.83;;
1785;SDS011;890;48.158;11.540;2024-03-06T10:27:46;8.90;;;6.90;;
1785;SDS011;890;48.158;11.540;2024-03-06T10:30:32;9.20;;;6.70;;
1785;SDS011;890;48.158;11.540;2024-03-06T10:33:03;7.73;;;6.93;;
1785;SDS011;890;48.158;11.540;2024-03-06T10:35:30;7.67;;;6.87;;
1785;SDS011;890;48.158;11.540;2024-03-06T10:37:56;9.13;;;7.53;;
1785;SDS011;890;48.158;11.540;2024-03-06T10:40:25;9.40;;;8.37;;
1785;SDS011;890;48.158;11.540;2024-03-06T10:42:54;9.20;;;8.20;;
1785;SDS011;890;48.158;11.540;2024-03-06T10:45:21;8.60;;;7.63;;
1785;SDS011;890;48.158;11.540;2024-03-06T10:47:50;10.20;;;8.47;;
1785;SDS011;890;48.158;11.540;2024-03-06T10:50:17;10.93;;;9.67;;
1785;SDS011;890;48.158;11.540;2024-03-06T10:52:44;12.93;;;10.17;;
1785;SDS011;890;48.158;11.540;2024-03-06T10:55:12;11.60;;;9.97;;
1785;SDS011;890;48.158;11.540;2024-03-06T10:57:38;11.43;;;10.00;;
1785;SDS011;890;48.158;11.540;2024-03-06T11:00:06;12.27;;;9.17;;
1785;SDS011;890;48.158;11.540;2024-03-06T11:02:32;10.40;;;8.00;;
1785;SDS011;890;48.158;11.540;2024-03-06T11:05:00;10.07;;;8.67;;
1785;SDS011;890;48.158;11.540;2024-03-06T11:07:30;9.97;;;8.07;;
1785;SDS011;890;48.158;11.540;2024-03-06T11:09:58;8.53;;;7.03;;
1785;SDS011;890;48.158;11.540;2024-03-06T11:12:38;8.47;;;7.60;;
1785;SDS011;890;48.158;11.540;2024-03-06T11:15:16;10.00;;;7.63;;
1785;SDS011;890;48.158;11.540;2024-03-06T11:17:42;9.50;;;8.10;;
1785;SDS011;890;48.158;11.540;2024-03-06T11:20:09;10.90;;;9.10;;
1785;SDS011;890;48.158;11.540;2024-03-06T11:28:11;8.90;;;7.80;;
1785;SDS011;890;48.158;11.540;2024-03-06T11:30:56;8.50;;;7.17;;
1785;SDS011;890;48.158;11.540;2024-03-06T11:33:24;7.80;;;7.00;;
1785;SDS011;890;48.158;11.540;2024-03-06T11:38:47;11.20;;;9.10;;
1785;SDS011;890;48.158;11.540;2024-03-06T11:41:21;11.20;;;9.57;;
1785;SDS011;890;48.158;11.540;2024-03-06T11:43:48;10.70;;;8.80;;
1785;SDS011;890;48.158;11.540;2024-03-06T11:46:18;11.13;;;9.00;;
1785;SDS011;890;48.158;11.540;2024-03-06T11:48:54;9.97;;;8.27;;
1785;SDS011;890;48.158;11.540;2024-03-06T11:51:21;11.90;;;9.37;;
1785;SDS011;890;48.158;11.540;2024-03-06T11:53:49;13.03;;;10.17;;
1785;SDS011;890;48.158;11.540;2024-03-06T11:56:16;9.70;;;8.40;;
1785;SDS011;890;48.158;11.540;2024-03-06T11:58:43;16.00;;;9.87;;
1785;SDS011;890;48.158;11.540;2024-03-06T12:01:08;15.17;;;11.07;;
1785;SDS011;890;48.158;11.540;2024-03-06T12:03:34;15.33;;;11.60;;
1785;SDS011;890;48.158;11.540;2024-03-06T12:06:00;16.83;;;12.53;;
1785;SDS011;890;48.158;11.540;2024-03-06T12:08:25;14.30;;;11.23;;
1785;SDS011;890;48.158;11.540;2024-03-06T12:10:51;13.47;;;11.77;;
1785;SDS011;890;48.158;11.540;2024-03-06T12:13:20;15.10;;;11.27;;
1785;SDS011;890;48.158;11.540;2024-03-06T12:15:46;16.57;;;13.00;;
1785;SDS011;890;48.158;11.540;2024-03-06T12:18:12;14.90;;;11.50;;
1785;SDS011;890;48.158;11.540;2024-03-06T12:20:44;14.50;;;10.97;;
1785;SDS011;890;48.158;11.540;2024-03-06T12:23:23;13.90;;;11.40;;
1785;SDS011;890;48.158;11.540;2024-03-06T12:25:50;17.20;;;13.43;;
1785;SDS011;890;48.158;11.540;2024-03-06T12:28:27;11.80;;;10.13;;
1785;SDS011;890;48.158;11.540;2024-03-06T12:30:53;15.30;;;12.30;;
1785;SDS011;890;48.158;11.540;2024-03-06T12:33:18;15.43;;;11.67;;
1785;SDS011;890;48.158;11.540;2024-03-06T12:35:45;14.47;;;11.17;;
1785;SDS011;890;48.158;11.540;2024-03-06T12:38:14;12.57;;;10.13;;
1785;SDS011;890;48.158;11.540;2024-03-06T12:40:40;13.57;;;11.60;;
1785;SDS011;890;48.158;11.540;2024-03-06T12:43:07;13.50;;;10.20;;
1785;SDS011;890;48.158;11.540;2024-03-06T12:45:34;13.60;;;11.30;;
1785;SDS011;890;48.158;11.540;2024-03-06T12:48:01;12.40;;;10.10;;
1785;SDS011;890;48.158;11.540;2024-03-06T12:50:27;11.70;;;9.23;;
1785;SDS011;890;48.158;11.540;2024-03-06T12:52:53;13.87;;;10.77;;
1785;SDS011;890;48.158;11.540;2024-03-06T12:55:19;12.97;;;10.97;;
1785;SDS011;890;48.158;11.540;2024-03-06T12:57:45;14.73;;;10.40;;
1785;SDS011;890;48.158;11.540;2024-03-06T13:00:11;14.40;;;10.57;;
1785;SDS011;890;48.158;11.540;2024-03-06T13:02:43;12.90;;;10.70;;
1785;SDS011;890;48.158;11.540;2024-03-06T13:05:10;12.60;;;10.17;;
1785;SDS011;890;48.158;11.540;2024-03-06T13:07:36;15.17;;;10.53;;
1785;SDS011;890;48.158;11.540;2024-03-06T13:10:02;15.17;;;10.60;;
1785;SDS011;890;48.158;11.540;2024-03-06T13:12:29;14.30;;;10.73;;
1785;SDS011;890;48.158;11.540;2024-03-06T13:14:55;13.33;;;9.80;;
1785;SDS011;890;48.158;11.540;2024-03-06T13:17:21;15.83;;;10.90;;
1785;SDS011;890;48.158;11.540;2024-03-06T13:19:47;16.00;;;12.03;;
1785;SDS011;890;48.158;11.540;2024-03-06T13:22:12;12.90;;;9.60;;
1785;SDS011;890;48.158;11.540;2024-03-06T13:24:38;16.33;;;10.70;;
1785;SDS011;890;48.158;11.540;2024-03-06T13:27:04;17.10;;;11.90;;
1785;SDS011;890;48.158;11.540;2024-03-06T13:29:30;16.33;;;11.33;;
1785;SDS011;890;48.158;11.540;2024-03-06T13:31:56;14.37;;;10.50;;
1785;SDS011;890;48.158;11.540;2024-03-06T13:34:21;9.83;;;8.83;;
1785;SDS011;890;48.158;11.540;2024-03-06T13:36:47;9.20;;;7.50;;
1785;SDS011;890;48.158;11.540;2024-03-06T13:39:12;9.53;;;7.27;;
1785;SDS011;890;48.158;11.540;2024-03-06T13:41:38;7.60;;;5.77;;
1785;SDS011;890;48.158;11.540;2024-03-06T13:44:05;8.23;;;7.10;;
1785;SDS011;890;48.158;11.540;2024-03-06T13:46:32;6.60;;;5.90;;
1785;SDS011;890;48.158;11.540;2024-03-06T13:48:58;8.77;;;7.17;;
1785;SDS011;890;48.158;11.540;2024-03-06T13:51:25;8.40;;;7.50;;
1785;SDS011;890;48.158;11.540;2024-03-06T13:53:51;9.43;;;7.83;;
1785;SDS011;890;48.158;11.540;2024-03-06T13:56:17;7.47;;;6.73;;
1785;SDS011;890;48.158;11.540;2024-03-06T13:58:43;10.60;;;7.37;;
1785;SDS011;890;48.158;11.540;2024-03-06T14:01:09;9.73;;;7.50;;
1785;SDS011;890;48.158;11.540;2024-03-06T14:03:34;8.63;;;7.83;;
1785;SDS011;890;48.158;11.540;2024-03-06T14:06:02;7.83;;;6.67;;
1785;SDS011;890;48.158;11.540;2024-03-06T14:08:28;9.40;;;7.57;;
1785;SDS011;890;48.158;11.540;2024-03-06T14:10:54;8.67;;;6.67;;
1785;SDS011;890;48.158;11.540;2024-03-06T14:13:20;10.67;;;7.50;;
1785;SDS011;890;48.158;11.540;2024-03-06T14:15:45;7.37;;;6.43;;
1785;SDS011;890;48.158;11.540;2024-03-06T14:18:13;9.93;;;7.07;;
1785;SDS011;890;48.158;11.540;2024-03-06T14:20:39;8.83;;;7.60;;
1785;SDS011;890;48.158;11.540;2024-03-06T14:23:04;8.63;;;7.70;;
1785;SDS011;890;48.158;11.540;2024-03-06T14:25:30;8.17;;;7.37;;
1785;SDS011;890;48.158;11.540;2024-03-06T14:28:00;8.27;;;7.40;;
1785;SDS011;890;48.158;11.540;2024-03-06T14:30:26;10.17;;;7.43;;
1785;SDS011;890;48.158;11.540;2024-03-06T14:32:52;9.20;;;8.23;;
1785;SDS011;890;48.158;11.540;2024-03-06T14:35:18;9.20;;;8.27;;
1785;SDS011;890;48.158;11.540;2024-03-06T14:37:44;9.10;;;8.00;;
1785;SDS011;890;48.158;11.540;2024-03-06T14:40:10;7.40;;;6.60;;
1785;SDS011;890;48.158;11.540;2024-03-06T14:42:36;9.07;;;8.17;;
1785;SDS011;890;48.158;11.540;2024-03-06T14:45:02;10.50;;;9.40;;
1785;SDS011;890;48.158;11.540;2024-03-06T14:47:30;11.60;;;7.00;;
1785;SDS011;890;48.158;11.540;2024-03-06T14:49:57;8.27;;;7.47;;
1785;SDS011;890;48.158;11.540;2024-03-06T14:52:22;10.17;;;7.93;;
1785;SDS011;890;48.158;11.540;2024-03-06T14:54:48;9.10;;;8.20;;
1785;SDS011;890;48.158;11.540;2024-03-06T14:57:14;8.47;;;7.60;;
1785;SDS011;890;48.158;11.540;2024-03-06T14:59:40;8.00;;;7.07;;
1785;SDS011;890;48.158;11.540;2024-03-06T15:02:05;9.07;;;7.17;;
1785;SDS011;890;48.158;11.540;2024-03-06T15:04:31;7.97;;;6.57;;
1785;SDS011;890;48.158;11.540;2024-03-06T15:06:57;7.53;;;6.57;;
1785;SDS011;890;48.158;11.540;2024-03-06T15:09:24;7.50;;;6.70;;